SWA5150 KPIT-KSAT
Flight info
| Callsign | SWA5150 |
|---|---|
| Flight time | N/A |
| Altitude | 36000 |
| Route | AHTIY BURGS HNN RAMRD Q68 LITTR/N0455F380 TXK FELIZ WINDU QERVO3 |
| Aircraft | B38M/M-SDE1FGHILORVWXY/HB1 |
Departure
| Time | N/A |
|---|---|
| Airport | Pittsburgh International Airport (KPIT) |
Arrival
| Time | 2026-04-21 17:41 |
|---|---|
| Airport | San Antonio International Airport (KSAT) |
| Time | Latitude | Longitude | Altitude | Speed | Heading |
|---|---|---|---|---|---|
| 2026-04-21 15:28 | 37.62407 | -84.83290 | 36331 ft | 418 kts | 248° |
| 2026-04-21 15:28 | 37.61110 | -84.86370 | 36329 ft | 419 kts | 248° |
| 2026-04-21 15:28 | 37.58379 | -84.92847 | 36322 ft | 419 kts | 248° |
| 2026-04-21 15:29 | 37.55638 | -84.99335 | 36325 ft | 419 kts | 248° |
| 2026-04-21 15:29 | 37.53246 | -85.04983 | 36312 ft | 419 kts | 248° |
| 2026-04-21 15:30 | 37.50506 | -85.11444 | 36342 ft | 417 kts | 248° |
| 2026-04-21 15:30 | 37.47785 | -85.17845 | 36350 ft | 417 kts | 248° |
| 2026-04-21 15:31 | 37.45041 | -85.24286 | 36363 ft | 418 kts | 248° |
| 2026-04-21 15:31 | 37.42293 | -85.30725 | 36369 ft | 418 kts | 248° |
| 2026-04-21 15:32 | 37.39542 | -85.37159 | 36309 ft | 418 kts | 248° |
| 2026-04-21 15:32 | 37.36786 | -85.43592 | 36275 ft | 418 kts | 247° |
| 2026-04-21 15:33 | 37.34026 | -85.50020 | 36305 ft | 417 kts | 247° |
| 2026-04-21 15:33 | 37.31267 | -85.56436 | 36309 ft | 417 kts | 247° |
| 2026-04-21 15:34 | 37.28504 | -85.62844 | 36300 ft | 417 kts | 247° |
| 2026-04-21 15:34 | 37.25738 | -85.69248 | 36309 ft | 417 kts | 247° |
| 2026-04-21 15:35 | 37.22986 | -85.75609 | 36317 ft | 417 kts | 247° |
| 2026-04-21 15:35 | 37.20215 | -85.81999 | 36330 ft | 417 kts | 247° |
| 2026-04-21 15:36 | 37.17437 | -85.88393 | 36331 ft | 417 kts | 247° |
| 2026-04-21 15:36 | 37.14655 | -85.94783 | 36330 ft | 417 kts | 247° |
| 2026-04-21 15:37 | 37.11869 | -86.01170 | 36339 ft | 418 kts | 247° |
| 2026-04-21 15:37 | 37.09082 | -86.07552 | 36332 ft | 417 kts | 247° |
| 2026-04-21 15:38 | 37.06294 | -86.13927 | 36335 ft | 418 kts | 247° |
| 2026-04-21 15:38 | 37.03497 | -86.20303 | 36326 ft | 417 kts | 246° |
| 2026-04-21 15:39 | 37.00705 | -86.26659 | 36325 ft | 417 kts | 246° |
| 2026-04-21 15:39 | 36.97905 | -86.33022 | 36331 ft | 417 kts | 246° |
| 2026-04-21 15:40 | 36.95124 | -86.39328 | 36328 ft | 417 kts | 246° |
| 2026-04-21 15:40 | 36.92464 | -86.45745 | 36320 ft | 413 kts | 252° |
| 2026-04-21 15:41 | 36.90150 | -86.52345 | 36319 ft | 415 kts | 250° |
| 2026-04-21 15:41 | 36.87785 | -86.58914 | 36335 ft | 415 kts | 250° |
| 2026-04-21 15:42 | 36.85409 | -86.65483 | 36321 ft | 415 kts | 250° |
| 2026-04-21 15:42 | 36.83029 | -86.72044 | 36312 ft | 415 kts | 250° |
| 2026-04-21 15:43 | 36.80648 | -86.78599 | 36307 ft | 415 kts | 250° |
| 2026-04-21 15:43 | 36.78261 | -86.85155 | 36307 ft | 415 kts | 250° |
| 2026-04-21 15:44 | 36.75872 | -86.91705 | 36308 ft | 415 kts | 250° |
| 2026-04-21 15:44 | 36.73474 | -86.98266 | 36296 ft | 416 kts | 250° |
| 2026-04-21 15:45 | 36.71070 | -87.04828 | 36285 ft | 416 kts | 249° |
| 2026-04-21 15:45 | 36.68660 | -87.11395 | 36290 ft | 417 kts | 249° |
| 2026-04-21 15:46 | 36.66242 | -87.17965 | 36293 ft | 417 kts | 249° |
| 2026-04-21 15:46 | 36.63822 | -87.24529 | 36309 ft | 417 kts | 249° |
| 2026-04-21 15:47 | 36.61801 | -87.30004 | 36315 ft | 417 kts | 249° |
| 2026-04-21 15:47 | 36.59384 | -87.36562 | 36308 ft | 417 kts | 249° |
| 2026-04-21 15:48 | 36.56980 | -87.43078 | 36327 ft | 417 kts | 249° |
| 2026-04-21 15:48 | 36.54539 | -87.49679 | 36305 ft | 417 kts | 249° |
| 2026-04-21 15:49 | 36.52128 | -87.56186 | 36313 ft | 417 kts | 249° |
| 2026-04-21 15:49 | 36.49696 | -87.62734 | 36313 ft | 417 kts | 249° |
| 2026-04-21 15:50 | 36.47258 | -87.69286 | 36294 ft | 417 kts | 249° |
| 2026-04-21 15:50 | 36.44825 | -87.75813 | 36305 ft | 415 kts | 249° |
| 2026-04-21 15:51 | 36.42391 | -87.82326 | 36304 ft | 415 kts | 249° |
| 2026-04-21 15:51 | 36.40264 | -87.88007 | 36310 ft | 416 kts | 249° |
| 2026-04-21 15:52 | 36.37836 | -87.94477 | 36306 ft | 416 kts | 249° |
| 2026-04-21 15:52 | 36.35393 | -88.00978 | 36303 ft | 416 kts | 249° |
| 2026-04-21 15:53 | 36.32965 | -88.07424 | 36302 ft | 416 kts | 249° |
| 2026-04-21 15:53 | 36.30518 | -88.13907 | 36303 ft | 414 kts | 249° |
| 2026-04-21 15:54 | 36.28081 | -88.20351 | 36299 ft | 413 kts | 249° |
| 2026-04-21 15:54 | 36.25636 | -88.26800 | 36297 ft | 413 kts | 249° |
| 2026-04-21 15:55 | 36.23194 | -88.33233 | 36289 ft | 413 kts | 249° |
| 2026-04-21 15:55 | 36.20755 | -88.39637 | 36303 ft | 410 kts | 249° |
| 2026-04-21 15:56 | 36.18322 | -88.46021 | 36308 ft | 410 kts | 249° |
| 2026-04-21 15:56 | 36.15889 | -88.52392 | 36302 ft | 407 kts | 249° |
| 2026-04-21 15:57 | 36.13465 | -88.58719 | 36300 ft | 407 kts | 249° |
| 2026-04-21 15:57 | 36.11038 | -88.65038 | 36301 ft | 407 kts | 249° |
| 2026-04-21 15:58 | 36.08608 | -88.71356 | 36294 ft | 407 kts | 249° |
| 2026-04-21 15:58 | 36.06174 | -88.77673 | 36295 ft | 407 kts | 249° |
| 2026-04-21 15:59 | 36.03737 | -88.83984 | 36294 ft | 407 kts | 249° |
| 2026-04-21 15:59 | 36.01303 | -88.90277 | 36293 ft | 404 kts | 249° |
| 2026-04-21 16:00 | 35.98882 | -88.96521 | 36302 ft | 403 kts | 249° |
| 2026-04-21 16:00 | 35.96456 | -89.02767 | 36299 ft | 403 kts | 249° |
| 2026-04-21 16:01 | 35.94028 | -89.09006 | 36313 ft | 403 kts | 249° |
| 2026-04-21 16:01 | 35.91600 | -89.15234 | 36306 ft | 403 kts | 249° |
| 2026-04-21 16:02 | 35.89164 | -89.21468 | 36309 ft | 403 kts | 249° |
| 2026-04-21 16:02 | 35.86727 | -89.27693 | 36309 ft | 402 kts | 249° |
| 2026-04-21 16:03 | 35.84296 | -89.33895 | 36314 ft | 402 kts | 249° |
| 2026-04-21 16:03 | 35.81872 | -89.40061 | 36313 ft | 402 kts | 249° |
| 2026-04-21 16:04 | 35.79434 | -89.46255 | 36311 ft | 402 kts | 249° |
| 2026-04-21 16:04 | 35.76991 | -89.52448 | 36308 ft | 402 kts | 249° |
| 2026-04-21 16:05 | 35.74545 | -89.58638 | 36279 ft | 402 kts | 249° |
| 2026-04-21 16:05 | 35.72096 | -89.64821 | 36292 ft | 401 kts | 249° |
| 2026-04-21 16:06 | 35.69650 | -89.70988 | 36299 ft | 401 kts | 249° |
| 2026-04-21 16:06 | 35.67199 | -89.77155 | 36302 ft | 401 kts | 249° |
| 2026-04-21 16:07 | 35.64746 | -89.83314 | 36312 ft | 401 kts | 249° |
| 2026-04-21 16:07 | 35.62288 | -89.89474 | 36300 ft | 401 kts | 249° |
| 2026-04-21 16:08 | 35.58598 | -89.98702 | 36302 ft | 401 kts | 249° |
| 2026-04-21 16:09 | 35.56128 | -90.04865 | 36303 ft | 403 kts | 248° |
| 2026-04-21 16:09 | 35.53649 | -90.11035 | 36301 ft | 403 kts | 248° |
| 2026-04-21 16:10 | 35.51172 | -90.17193 | 36300 ft | 403 kts | 248° |
| 2026-04-21 16:10 | 35.48685 | -90.23363 | 36278 ft | 405 kts | 248° |
| 2026-04-21 16:11 | 35.46604 | -90.28516 | 36290 ft | 406 kts | 248° |
| 2026-04-21 16:11 | 35.44097 | -90.34712 | 36297 ft | 405 kts | 248° |
| 2026-04-21 16:12 | 35.41589 | -90.40900 | 36287 ft | 405 kts | 247° |
| 2026-04-21 16:12 | 35.39080 | -90.47080 | 36299 ft | 405 kts | 247° |
| 2026-04-21 16:13 | 35.36570 | -90.53250 | 36299 ft | 405 kts | 247° |
| 2026-04-21 16:13 | 35.34053 | -90.59425 | 36306 ft | 405 kts | 247° |
| 2026-04-21 16:14 | 35.31533 | -90.65595 | 36311 ft | 405 kts | 247° |
| 2026-04-21 16:14 | 35.29030 | -90.71715 | 36307 ft | 405 kts | 247° |
| 2026-04-21 16:15 | 35.26506 | -90.77872 | 36301 ft | 405 kts | 247° |
| 2026-04-21 16:15 | 35.23976 | -90.84033 | 36291 ft | 405 kts | 247° |
| 2026-04-21 16:16 | 35.21436 | -90.90212 | 36310 ft | 408 kts | 247° |
| 2026-04-21 16:16 | 35.18882 | -90.96403 | 36302 ft | 407 kts | 246° |
| 2026-04-21 16:17 | 35.16330 | -91.02584 | 36301 ft | 407 kts | 246° |
| 2026-04-21 16:17 | 35.13774 | -91.08763 | 36300 ft | 407 kts | 246° |
| 2026-04-21 16:18 | 35.11212 | -91.14943 | 36302 ft | 407 kts | 246° |
| 2026-04-21 16:18 | 35.08664 | -91.21080 | 36305 ft | 408 kts | 246° |
| 2026-04-21 16:19 | 35.06096 | -91.27254 | 36300 ft | 408 kts | 246° |
| 2026-04-21 16:19 | 35.03522 | -91.33429 | 36296 ft | 408 kts | 246° |
| 2026-04-21 16:20 | 35.00947 | -91.39597 | 36296 ft | 408 kts | 246° |
| 2026-04-21 16:20 | 34.98368 | -91.45762 | 36296 ft | 408 kts | 246° |
| 2026-04-21 16:21 | 34.95792 | -91.51907 | 36293 ft | 406 kts | 246° |
| 2026-04-21 16:21 | 34.93224 | -91.58027 | 36292 ft | 406 kts | 246° |
| 2026-04-21 16:22 | 34.90644 | -91.64159 | 36300 ft | 406 kts | 246° |
| 2026-04-21 16:22 | 34.88064 | -91.70281 | 36295 ft | 406 kts | 246° |
| 2026-04-21 16:23 | 34.85482 | -91.76400 | 36303 ft | 406 kts | 246° |
| 2026-04-21 16:23 | 34.82894 | -91.82520 | 36295 ft | 406 kts | 246° |
| 2026-04-21 16:24 | 34.80302 | -91.88639 | 36289 ft | 406 kts | 246° |
| 2026-04-21 16:24 | 34.77710 | -91.94753 | 36289 ft | 407 kts | 245° |
| 2026-04-21 16:25 | 34.75112 | -92.00866 | 36304 ft | 407 kts | 245° |
| 2026-04-21 16:25 | 34.72512 | -92.06973 | 36317 ft | 407 kts | 245° |
| 2026-04-21 16:26 | 34.69924 | -92.13045 | 36328 ft | 408 kts | 245° |
| 2026-04-21 16:26 | 34.67196 | -92.19101 | 36289 ft | 411 kts | 237° |
| 2026-04-21 16:26 | 34.65470 | -92.21865 | 36391 ft | 410 kts | 237° |
| 2026-04-21 16:27 | 34.63784 | -92.24680 | 36320 ft | 413 kts | 237° |
| 2026-04-21 16:27 | 34.60420 | -92.30291 | 36321 ft | 412 kts | 237° |
| 2026-04-21 16:28 | 34.57510 | -92.35133 | 36315 ft | 413 kts | 237° |
| 2026-04-21 16:28 | 34.54120 | -92.40763 | 36319 ft | 413 kts | 237° |
| 2026-04-21 16:29 | 34.50733 | -92.46379 | 36314 ft | 413 kts | 237° |
| 2026-04-21 16:29 | 34.47341 | -92.51995 | 36309 ft | 413 kts | 237° |
| 2026-04-21 16:30 | 34.44034 | -92.57461 | 36279 ft | 412 kts | 237° |
| 2026-04-21 16:30 | 34.41098 | -92.62306 | 36285 ft | 412 kts | 237° |
| 2026-04-21 16:31 | 34.37707 | -92.67895 | 36294 ft | 412 kts | 237° |
| 2026-04-21 16:31 | 34.34310 | -92.73486 | 36295 ft | 412 kts | 237° |
| 2026-04-21 16:32 | 34.30906 | -92.79078 | 36300 ft | 413 kts | 237° |
| 2026-04-21 16:32 | 34.27502 | -92.84663 | 36312 ft | 412 kts | 237° |
| 2026-04-21 16:33 | 34.24094 | -92.90245 | 36319 ft | 413 kts | 237° |
| 2026-04-21 16:33 | 34.20685 | -92.95819 | 36324 ft | 413 kts | 237° |
| 2026-04-21 16:34 | 34.17273 | -93.01392 | 36322 ft | 412 kts | 237° |
| 2026-04-21 16:34 | 34.13875 | -93.06931 | 36331 ft | 409 kts | 236° |
| 2026-04-21 16:35 | 34.10483 | -93.12452 | 36332 ft | 410 kts | 236° |
| 2026-04-21 16:35 | 34.07086 | -93.17974 | 36324 ft | 409 kts | 236° |
| 2026-04-21 16:36 | 34.03686 | -93.23491 | 36322 ft | 410 kts | 236° |
| 2026-04-21 16:36 | 34.00308 | -93.28966 | 36319 ft | 410 kts | 236° |
| 2026-04-21 16:37 | 33.96903 | -93.34474 | 36310 ft | 410 kts | 236° |
| 2026-04-21 16:37 | 33.93497 | -93.39976 | 36303 ft | 410 kts | 236° |
| 2026-04-21 16:38 | 33.90087 | -93.45477 | 36289 ft | 410 kts | 236° |
| 2026-04-21 16:38 | 33.86675 | -93.50971 | 36295 ft | 410 kts | 236° |
| 2026-04-21 16:39 | 33.83258 | -93.56467 | 36299 ft | 410 kts | 236° |
| 2026-04-21 16:39 | 33.79842 | -93.61952 | 36299 ft | 410 kts | 236° |
| 2026-04-21 16:40 | 33.76420 | -93.67439 | 36299 ft | 410 kts | 236° |
| 2026-04-21 16:40 | 33.73000 | -93.72914 | 36302 ft | 410 kts | 236° |
| 2026-04-21 16:41 | 33.70150 | -93.77470 | 36306 ft | 410 kts | 236° |
| 2026-04-21 16:41 | 33.66138 | -93.83874 | 36301 ft | 413 kts | 236° |
| 2026-04-21 16:42 | 33.62663 | -93.89412 | 36312 ft | 417 kts | 236° |
| 2026-04-21 16:42 | 33.59189 | -93.94943 | 36313 ft | 414 kts | 236° |
| 2026-04-21 16:43 | 33.55724 | -94.00451 | 36318 ft | 413 kts | 236° |
| 2026-04-21 16:43 | 33.52255 | -94.05956 | 36320 ft | 414 kts | 236° |
| 2026-04-21 16:44 | 33.48633 | -94.11326 | 36323 ft | 415 kts | 234° |
| 2026-04-21 16:44 | 33.45024 | -94.16658 | 36317 ft | 415 kts | 234° |
| 2026-04-21 16:45 | 33.41392 | -94.22023 | 36326 ft | 415 kts | 234° |
| 2026-04-21 16:45 | 33.37758 | -94.27387 | 36329 ft | 415 kts | 234° |
| 2026-04-21 16:46 | 33.34121 | -94.32747 | 36325 ft | 414 kts | 234° |
| 2026-04-21 16:46 | 33.30484 | -94.38097 | 36322 ft | 415 kts | 234° |
| 2026-04-21 16:47 | 33.26842 | -94.43449 | 36321 ft | 415 kts | 234° |
| 2026-04-21 16:47 | 33.23192 | -94.48803 | 36320 ft | 415 kts | 234° |
| 2026-04-21 16:48 | 33.19547 | -94.54143 | 36310 ft | 415 kts | 234° |
| 2026-04-21 16:48 | 33.15918 | -94.59451 | 36313 ft | 415 kts | 233° |
| 2026-04-21 16:49 | 33.12269 | -94.64781 | 36311 ft | 415 kts | 233° |
| 2026-04-21 16:49 | 33.08618 | -94.70107 | 36318 ft | 415 kts | 233° |
| 2026-04-21 16:50 | 33.04964 | -94.75428 | 36320 ft | 414 kts | 234° |
| 2026-04-21 16:50 | 33.01311 | -94.80741 | 36281 ft | 414 kts | 234° |
| 2026-04-21 16:51 | 32.97660 | -94.86043 | 36300 ft | 415 kts | 234° |
| 2026-04-21 16:51 | 32.94005 | -94.91343 | 36302 ft | 414 kts | 234° |
| 2026-04-21 16:52 | 32.90348 | -94.96639 | 36299 ft | 414 kts | 233° |
| 2026-04-21 16:52 | 32.86685 | -95.01936 | 36305 ft | 415 kts | 233° |
| 2026-04-21 16:53 | 32.83016 | -95.07234 | 36301 ft | 415 kts | 233° |
| 2026-04-21 16:53 | 32.79344 | -95.12528 | 36301 ft | 415 kts | 233° |
| 2026-04-21 16:54 | 32.75672 | -95.17815 | 36304 ft | 415 kts | 233° |
| 2026-04-21 16:54 | 32.71999 | -95.23096 | 36306 ft | 415 kts | 233° |
| 2026-04-21 16:55 | 32.68322 | -95.28374 | 36309 ft | 415 kts | 233° |
| 2026-04-21 16:55 | 32.64645 | -95.33646 | 36312 ft | 415 kts | 233° |
| 2026-04-21 16:56 | 32.60997 | -95.38870 | 36312 ft | 413 kts | 233° |
| 2026-04-21 16:56 | 32.57329 | -95.44113 | 36308 ft | 413 kts | 233° |
| 2026-04-21 16:57 | 32.53659 | -95.49352 | 36317 ft | 413 kts | 233° |
| 2026-04-21 16:57 | 32.49990 | -95.54582 | 36320 ft | 413 kts | 233° |
| 2026-04-21 16:58 | 32.46327 | -95.59799 | 36320 ft | 412 kts | 233° |
| 2026-04-21 16:58 | 32.43173 | -95.64286 | 36294 ft | 412 kts | 233° |
| 2026-04-21 16:59 | 32.39624 | -95.69587 | 36290 ft | 409 kts | 237° |
| 2026-04-21 16:59 | 32.36393 | -95.74943 | 36304 ft | 411 kts | 237° |
| 2026-04-21 17:00 | 32.33036 | -95.80412 | 36301 ft | 411 kts | 236° |
| 2026-04-21 17:00 | 32.30243 | -95.84948 | 36299 ft | 410 kts | 237° |
| 2026-04-21 17:01 | 32.26314 | -95.91323 | 36315 ft | 411 kts | 236° |
| 2026-04-21 17:01 | 32.22967 | -95.96743 | 36294 ft | 411 kts | 236° |
| 2026-04-21 17:02 | 32.19602 | -96.02186 | 36242 ft | 410 kts | 237° |
| 2026-04-21 17:02 | 32.16230 | -96.07630 | 36296 ft | 411 kts | 237° |
| 2026-04-21 17:03 | 32.12861 | -96.13063 | 36291 ft | 409 kts | 238° |
| 2026-04-21 17:03 | 32.09510 | -96.18459 | 36295 ft | 408 kts | 238° |
| 2026-04-21 17:04 | 32.06719 | -96.22947 | 36297 ft | 408 kts | 237° |
| 2026-04-21 17:04 | 32.03359 | -96.28345 | 36302 ft | 408 kts | 237° |
| 2026-04-21 17:05 | 31.99999 | -96.33734 | 36311 ft | 408 kts | 237° |
| 2026-04-21 17:05 | 31.96635 | -96.39123 | 36300 ft | 408 kts | 237° |
| 2026-04-21 17:06 | 31.93269 | -96.44506 | 36302 ft | 408 kts | 237° |
| 2026-04-21 17:06 | 31.89904 | -96.49883 | 36269 ft | 406 kts | 238° |
| 2026-04-21 17:07 | 31.86573 | -96.55193 | 36287 ft | 402 kts | 239° |
| 2026-04-21 17:07 | 31.83252 | -96.60483 | 36273 ft | 402 kts | 239° |
| 2026-04-21 17:08 | 31.79928 | -96.65769 | 36266 ft | 402 kts | 238° |
| 2026-04-21 17:08 | 31.77054 | -96.70335 | 36241 ft | 402 kts | 238° |
| 2026-04-21 17:09 | 31.72064 | -96.78250 | 36253 ft | 402 kts | 238° |
| 2026-04-21 17:09 | 31.68728 | -96.83532 | 36246 ft | 402 kts | 238° |
| 2026-04-21 17:10 | 31.65410 | -96.88780 | 36249 ft | 404 kts | 238° |
| 2026-04-21 17:10 | 31.62062 | -96.94065 | 36254 ft | 403 kts | 238° |
| 2026-04-21 17:11 | 31.58708 | -96.99357 | 36265 ft | 405 kts | 238° |
| 2026-04-21 17:11 | 31.55343 | -97.04657 | 36276 ft | 405 kts | 238° |
| 2026-04-21 17:12 | 31.53471 | -97.07143 | 36209 ft | 413 kts | 225° |
| 2026-04-21 17:12 | 31.50990 | -97.08914 | 36236 ft | 426 kts | 209° |
| 2026-04-21 17:12 | 31.45321 | -97.11240 | 36186 ft | 433 kts | 207° |
| 2026-04-21 17:13 | 31.39608 | -97.13523 | 36249 ft | 435 kts | 206° |
| 2026-04-21 17:13 | 31.33875 | -97.15775 | 36251 ft | 434 kts | 206° |
| 2026-04-21 17:14 | 31.28135 | -97.18021 | 36239 ft | 436 kts | 206° |
| 2026-04-21 17:14 | 31.22380 | -97.20271 | 36252 ft | 436 kts | 206° |
| 2026-04-21 17:15 | 31.16622 | -97.22519 | 36255 ft | 436 kts | 206° |
| 2026-04-21 17:15 | 31.10864 | -97.24763 | 36258 ft | 436 kts | 206° |
| 2026-04-21 17:16 | 31.05144 | -97.26990 | 36265 ft | 436 kts | 206° |
| 2026-04-21 17:16 | 30.99352 | -97.29243 | 36078 ft | 434 kts | 206° |
| 2026-04-21 17:17 | 30.96521 | -97.30343 | 35313 ft | 436 kts | 207° |
| 2026-04-21 17:17 | 30.93638 | -97.31462 | 34648 ft | 436 kts | 207° |
| 2026-04-21 17:17 | 30.90727 | -97.32591 | 34090 ft | 434 kts | 207° |
| 2026-04-21 17:17 | 30.87911 | -97.33683 | 33513 ft | 431 kts | 207° |
| 2026-04-21 17:18 | 30.85077 | -97.34781 | 32961 ft | 428 kts | 206° |
| 2026-04-21 17:18 | 30.82262 | -97.35871 | 32431 ft | 425 kts | 206° |
| 2026-04-21 17:18 | 30.79468 | -97.36952 | 31909 ft | 422 kts | 206° |
| 2026-04-21 17:18 | 30.76687 | -97.38028 | 31377 ft | 420 kts | 206° |
| 2026-04-21 17:19 | 30.73927 | -97.39096 | 30828 ft | 417 kts | 206° |
| 2026-04-21 17:19 | 30.71186 | -97.40155 | 30339 ft | 414 kts | 206° |
| 2026-04-21 17:19 | 30.68456 | -97.41209 | 29750 ft | 412 kts | 206° |
| 2026-04-21 17:19 | 30.65745 | -97.42255 | 29193 ft | 409 kts | 206° |
| 2026-04-21 17:20 | 30.63055 | -97.43293 | 28698 ft | 405 kts | 205° |
| 2026-04-21 17:20 | 30.60390 | -97.44320 | 28202 ft | 402 kts | 205° |
| 2026-04-21 17:20 | 30.57747 | -97.45338 | 27708 ft | 399 kts | 205° |
| 2026-04-21 17:20 | 30.55124 | -97.46348 | 27211 ft | 396 kts | 205° |
| 2026-04-21 17:21 | 30.52515 | -97.47352 | 26739 ft | 394 kts | 205° |
| 2026-04-21 17:21 | 30.49921 | -97.48350 | 26263 ft | 391 kts | 205° |
| 2026-04-21 17:21 | 30.47376 | -97.49328 | 25803 ft | 389 kts | 204° |
| 2026-04-21 17:21 | 30.44778 | -97.50326 | 25362 ft | 387 kts | 204° |
| 2026-04-21 17:22 | 30.42257 | -97.51294 | 24918 ft | 386 kts | 204° |
| 2026-04-21 17:22 | 30.39681 | -97.52283 | 24459 ft | 385 kts | 204° |
| 2026-04-21 17:22 | 30.37232 | -97.53373 | 23954 ft | 379 kts | 213° |
| 2026-04-21 17:22 | 30.34996 | -97.54968 | 23414 ft | 376 kts | 216° |
| 2026-04-21 17:23 | 30.32761 | -97.56520 | 22997 ft | 373 kts | 215° |
| 2026-04-21 17:23 | 30.30542 | -97.58051 | 22573 ft | 370 kts | 215° |
| 2026-04-21 17:23 | 30.28347 | -97.59570 | 22155 ft | 366 kts | 216° |
| 2026-04-21 17:23 | 30.26166 | -97.61078 | 21756 ft | 363 kts | 215° |
| 2026-04-21 17:24 | 30.24008 | -97.62569 | 21356 ft | 360 kts | 215° |
| 2026-04-21 17:24 | 30.21863 | -97.64051 | 20971 ft | 357 kts | 215° |
| 2026-04-21 17:24 | 30.19737 | -97.65519 | 20579 ft | 355 kts | 215° |
| 2026-04-21 17:24 | 30.17627 | -97.66976 | 20194 ft | 352 kts | 215° |
| 2026-04-21 17:25 | 30.15529 | -97.68424 | 19790 ft | 350 kts | 214° |
| 2026-04-21 17:25 | 30.13437 | -97.69867 | 19411 ft | 349 kts | 214° |
| 2026-04-21 17:25 | 30.11362 | -97.71297 | 19035 ft | 347 kts | 214° |
| 2026-04-21 17:25 | 30.09295 | -97.72721 | 18672 ft | 345 kts | 214° |
| 2026-04-21 17:26 | 30.07243 | -97.74135 | 18271 ft | 343 kts | 214° |
| 2026-04-21 17:26 | 30.05201 | -97.75540 | 17847 ft | 340 kts | 214° |
| 2026-04-21 17:26 | 30.03172 | -97.76937 | 17457 ft | 338 kts | 214° |
| 2026-04-21 17:26 | 30.01159 | -97.78320 | 16999 ft | 338 kts | 214° |
| 2026-04-21 17:27 | 29.99140 | -97.79709 | 16554 ft | 337 kts | 214° |
| 2026-04-21 17:27 | 29.97128 | -97.81091 | 16154 ft | 335 kts | 214° |
| 2026-04-21 17:27 | 29.95128 | -97.82464 | 15763 ft | 333 kts | 214° |
| 2026-04-21 17:27 | 29.93146 | -97.83824 | 15391 ft | 331 kts | 214° |
| 2026-04-21 17:28 | 29.91200 | -97.85220 | 14960 ft | 328 kts | 220° |
| 2026-04-21 17:28 | 29.89686 | -97.87178 | 14355 ft | 329 kts | 241° |
| 2026-04-21 17:28 | 29.88764 | -97.89580 | 13952 ft | 326 kts | 249° |
| 2026-04-21 17:28 | 29.87925 | -97.91999 | 13545 ft | 324 kts | 249° |
| 2026-04-21 17:29 | 29.87106 | -97.94407 | 13089 ft | 323 kts | 249° |
| 2026-04-21 17:29 | 29.86289 | -97.96807 | 12692 ft | 320 kts | 249° |
| 2026-04-21 17:29 | 29.85507 | -97.99124 | 12533 ft | 309 kts | 249° |
| 2026-04-21 17:29 | 29.84747 | -98.01391 | 12417 ft | 299 kts | 249° |
| 2026-04-21 17:30 | 29.83999 | -98.03630 | 12113 ft | 304 kts | 249° |
| 2026-04-21 17:30 | 29.83233 | -98.05929 | 11691 ft | 309 kts | 248° |
| 2026-04-21 17:30 | 29.82471 | -98.08223 | 11467 ft | 304 kts | 248° |
| 2026-04-21 17:30 | 29.81726 | -98.10458 | 11360 ft | 293 kts | 248° |
| 2026-04-21 17:31 | 29.81006 | -98.12619 | 11223 ft | 284 kts | 248° |
| 2026-04-21 17:31 | 29.80308 | -98.14711 | 11068 ft | 276 kts | 248° |
| 2026-04-21 17:31 | 29.79625 | -98.16763 | 10694 ft | 276 kts | 248° |
| 2026-04-21 17:31 | 29.78930 | -98.18854 | 10179 ft | 283 kts | 247° |
| 2026-04-21 17:32 | 29.78463 | -98.20261 | 9822 ft | 286 kts | 247° |
| 2026-04-21 17:32 | 29.77497 | -98.23158 | 9060 ft | 294 kts | 247° |
| 2026-04-21 17:32 | 29.76756 | -98.25382 | 8452 ft | 301 kts | 246° |
| 2026-04-21 17:32 | 29.76000 | -98.27645 | 7966 ft | 304 kts | 246° |
| 2026-04-21 17:33 | 29.75248 | -98.29902 | 7625 ft | 300 kts | 246° |
| 2026-04-21 17:33 | 29.74506 | -98.32122 | 7376 ft | 294 kts | 246° |
| 2026-04-21 17:33 | 29.73778 | -98.34298 | 7129 ft | 289 kts | 246° |
| 2026-04-21 17:33 | 29.73067 | -98.36442 | 6827 ft | 286 kts | 246° |
| 2026-04-21 17:34 | 29.72376 | -98.38580 | 6490 ft | 284 kts | 246° |
| 2026-04-21 17:34 | 29.71694 | -98.40690 | 6175 ft | 279 kts | 246° |
| 2026-04-21 17:34 | 29.71050 | -98.42774 | 5958 ft | 274 kts | 252° |
| 2026-04-21 17:34 | 29.70961 | -98.44959 | 5685 ft | 274 kts | 269° |
| 2026-04-21 17:35 | 29.71048 | -98.47124 | 5473 ft | 267 kts | 268° |
| 2026-04-21 17:35 | 29.71115 | -98.49239 | 5239 ft | 263 kts | 268° |
| 2026-04-21 17:35 | 29.71179 | -98.51323 | 4998 ft | 258 kts | 268° |
| 2026-04-21 17:35 | 29.71243 | -98.53368 | 4747 ft | 254 kts | 268° |
| 2026-04-21 17:36 | 29.71306 | -98.55376 | 4523 ft | 248 kts | 268° |
| 2026-04-21 17:36 | 29.71347 | -98.57336 | 4301 ft | 241 kts | 262° |
| 2026-04-21 17:36 | 29.70813 | -98.59074 | 4031 ft | 228 kts | 227° |
| 2026-04-21 17:36 | 29.69540 | -98.60012 | 3680 ft | 220 kts | 190° |
| 2026-04-21 17:37 | 29.68131 | -98.59883 | 3815 ft | 188 kts | 161° |
| 2026-04-21 17:37 | 29.67017 | -98.59231 | 3998 ft | 178 kts | 155° |
| 2026-04-21 17:37 | 29.66248 | -98.58876 | 3886 ft | 184 kts | 169° |
| 2026-04-21 17:37 | 29.64478 | -98.59053 | 3277 ft | 198 kts | 191° |
| 2026-04-21 17:38 | 29.63138 | -98.59235 | 3036 ft | 189 kts | 173° |
| 2026-04-21 17:38 | 29.62039 | -98.58544 | 2611 ft | 179 kts | 128° |
| 2026-04-21 17:38 | 29.61415 | -98.57380 | 2599 ft | 167 kts | 122° |
| 2026-04-21 17:38 | 29.60645 | -98.56359 | 2544 ft | 173 kts | 136° |
| 2026-04-21 17:39 | 29.59775 | -98.55377 | 2407 ft | 176 kts | 135° |
| 2026-04-21 17:39 | 29.58920 | -98.54374 | 2195 ft | 173 kts | 134° |
| 2026-04-21 17:39 | 29.58111 | -98.53396 | 1914 ft | 165 kts | 133° |
| 2026-04-21 17:39 | 29.57353 | -98.52497 | 1696 ft | 147 kts | 133° |
| 2026-04-21 17:40 | 29.56672 | -98.51651 | 1482 ft | 143 kts | 132° |
| 2026-04-21 17:40 | 29.56015 | -98.50816 | 1237 ft | 141 kts | 131° |
| 2026-04-21 17:40 | 29.55388 | -98.49985 | 1053 ft | 134 kts | 131° |
| 2026-04-21 17:40 | 29.54766 | -98.49188 | 957 ft | 133 kts | 130° |
| 2026-04-21 17:41 | 29.54164 | -98.48407 | 824 ft | 129 kts | 132° |
| 2026-04-21 17:41 | 29.53644 | -98.47740 | 799 ft | 81 kts | 131° |
| 2026-04-21 17:41 | 29.53408 | -98.47436 | 798 ft | 33 kts | 132° |
| 2026-04-21 17:41 | 29.53290 | -98.47313 | 797 ft | 13 kts | 159° |
| 2026-04-21 17:42 | 29.53213 | -98.47285 | 798 ft | 8 kts | 163° |
| 2026-04-21 17:42 | 29.53171 | -98.47270 | 798 ft | 6 kts | 164° |
| 2026-04-21 17:42 | 29.53125 | -98.47252 | 798 ft | 8 kts | 151° |
| 2026-04-21 17:42 | 29.53081 | -98.47205 | 797 ft | 10 kts | 130° |
| 2026-04-21 17:43 | 29.53058 | -98.47173 | 813 ft | 4 kts | 130° |
| 2026-04-21 17:43 | 29.53031 | -98.47137 | 797 ft | 7 kts | 130° |
| 2026-04-21 17:43 | 29.52992 | -98.47089 | 797 ft | 9 kts | 135° |
| 2026-04-21 17:43 | 29.52947 | -98.47035 | 797 ft | 10 kts | 132° |
| 2026-04-21 17:44 | 29.52896 | -98.46968 | 795 ft | 13 kts | 131° |
| 2026-04-21 17:44 | 29.52836 | -98.46891 | 792 ft | 12 kts | 132° |
| 2026-04-21 17:44 | 29.52788 | -98.46830 | 792 ft | 6 kts | 131° |
| 2026-04-21 17:44 | 29.52757 | -98.46794 | 792 ft | 6 kts | 147° |
| 2026-04-21 17:45 | 29.52716 | -98.46794 | 793 ft | 6 kts | 212° |
| 2026-04-21 17:45 | 29.52710 | -98.46834 | 793 ft | 6 kts | 294° |
| 2026-04-21 17:45 | 29.52736 | -98.46874 | 793 ft | 7 kts | 311° |
| 2026-04-21 17:45 | 29.52771 | -98.46920 | 793 ft | 8 kts | 311° |
| 2026-04-21 17:46 | 29.52810 | -98.46969 | 794 ft | 8 kts | 313° |
| 2026-04-21 17:46 | 29.52839 | -98.47015 | 795 ft | 6 kts | 282° |
| 2026-04-21 17:46 | 29.52840 | -98.47042 | 796 ft | 3 kts | 265° |
| 2026-04-21 17:46 | 29.52835 | -98.47063 | 796 ft | 3 kts | 246° |
| 2026-04-21 17:47 | 29.52820 | -98.47086 | 796 ft | 4 kts | 227° |
| 2026-04-21 17:47 | 29.52798 | -98.47093 | 795 ft | 4 kts | 169° |
| 2026-04-21 17:47 | 29.52773 | -98.47070 | 794 ft | 2 kts | 132° |
| 2026-04-21 17:47 | 29.52768 | -98.47065 | 794 ft | 0 kts | 132° |